sensor_id;sensor_type;location;lat;lon;timestamp;P1;durP1;ratioP1;P2;durP2;ratioP2
64903;SDS011;51401;48.882;12.598;2023-08-20T00:02:24;7.07;;;6.32;;
64903;SDS011;51401;48.882;12.598;2023-08-20T00:04:50;7.40;;;6.65;;
64903;SDS011;51401;48.882;12.598;2023-08-20T00:07:16;7.68;;;6.72;;
64903;SDS011;51401;48.882;12.598;2023-08-20T00:09:43;6.85;;;6.22;;
64903;SDS011;51401;48.882;12.598;2023-08-20T00:12:09;7.53;;;6.78;;
64903;SDS011;51401;48.882;12.598;2023-08-20T00:17:31;7.25;;;6.57;;
64903;SDS011;51401;48.882;12.598;2023-08-20T00:19:57;8.18;;;6.38;;
64903;SDS011;51401;48.882;12.598;2023-08-20T00:22:23;8.23;;;6.40;;
64903;SDS011;51401;48.882;12.598;2023-08-20T00:24:53;7.43;;;6.32;;
64903;SDS011;51401;48.882;12.598;2023-08-20T00:27:19;7.57;;;6.63;;
64903;SDS011;51401;48.882;12.598;2023-08-20T00:29:44;7.10;;;6.40;;
64903;SDS011;51401;48.882;12.598;2023-08-20T00:32:10;7.97;;;6.57;;
64903;SDS011;51401;48.882;12.598;2023-08-20T00:34:35;8.65;;;6.47;;
64903;SDS011;51401;48.882;12.598;2023-08-20T00:37:01;7.90;;;6.47;;
64903;SDS011;51401;48.882;12.598;2023-08-20T00:39:27;8.07;;;6.63;;
64903;SDS011;51401;48.882;12.598;2023-08-20T00:41:53;6.90;;;6.20;;
64903;SDS011;51401;48.882;12.598;2023-08-20T00:44:18;7.47;;;6.77;;
64903;SDS011;51401;48.882;12.598;2023-08-20T00:46:44;8.43;;;6.65;;
64903;SDS011;51401;48.882;12.598;2023-08-20T00:49:09;11.23;;;7.07;;
64903;SDS011;51401;48.882;12.598;2023-08-20T00:51:35;7.90;;;6.90;;
64903;SDS011;51401;48.882;12.598;2023-08-20T00:54:01;7.18;;;6.47;;
64903;SDS011;51401;48.882;12.598;2023-08-20T00:56:27;7.47;;;6.50;;
64903;SDS011;51401;48.882;12.598;2023-08-20T00:58:53;7.43;;;6.30;;
64903;SDS011;51401;48.882;12.598;2023-08-20T01:01:20;9.23;;;7.07;;
64903;SDS011;51401;48.882;12.598;2023-08-20T01:03:46;8.60;;;7.72;;
64903;SDS011;51401;48.882;12.598;2023-08-20T01:09:10;9.40;;;6.45;;
64903;SDS011;51401;48.882;12.598;2023-08-20T01:11:47;7.47;;;6.75;;
64903;SDS011;51401;48.882;12.598;2023-08-20T01:14:17;7.78;;;6.55;;
64903;SDS011;51401;48.882;12.598;2023-08-20T01:16:42;7.88;;;6.80;;
64903;SDS011;51401;48.882;12.598;2023-08-20T01:19:10;7.93;;;7.00;;
64903;SDS011;51401;48.882;12.598;2023-08-20T01:21:46;7.95;;;6.95;;
64903;SDS011;51401;48.882;12.598;2023-08-20T01:30:07;7.82;;;7.07;;
64903;SDS011;51401;48.882;12.598;2023-08-20T01:32:34;7.82;;;6.97;;
64903;SDS011;51401;48.882;12.598;2023-08-20T01:35:01;7.53;;;6.72;;
64903;SDS011;51401;48.882;12.598;2023-08-20T01:37:28;9.57;;;6.60;;
64903;SDS011;51401;48.882;12.598;2023-08-20T01:39:53;7.30;;;6.60;;
64903;SDS011;51401;48.882;12.598;2023-08-20T01:42:18;6.93;;;6.23;;
64903;SDS011;51401;48.882;12.598;2023-08-20T01:44:44;7.15;;;6.45;;
64903;SDS011;51401;48.882;12.598;2023-08-20T01:47:09;7.63;;;6.70;;
64903;SDS011;51401;48.882;12.598;2023-08-20T01:49:34;9.63;;;7.30;;
64903;SDS011;51401;48.882;12.598;2023-08-20T01:51:59;8.20;;;6.93;;
64903;SDS011;51401;48.882;12.598;2023-08-20T01:54:25;7.27;;;6.57;;
64903;SDS011;51401;48.882;12.598;2023-08-20T01:56:51;7.85;;;6.60;;
64903;SDS011;51401;48.882;12.598;2023-08-20T01:59:16;7.67;;;6.80;;
64903;SDS011;51401;48.882;12.598;2023-08-20T02:01:42;8.60;;;6.57;;
64903;SDS011;51401;48.882;12.598;2023-08-20T02:04:08;8.70;;;6.95;;
64903;SDS011;51401;48.882;12.598;2023-08-20T02:06:33;8.48;;;7.20;;
64903;SDS011;51401;48.882;12.598;2023-08-20T02:08:59;8.45;;;7.65;;
64903;SDS011;51401;48.882;12.598;2023-08-20T02:11:24;7.40;;;6.10;;
64903;SDS011;51401;48.882;12.598;2023-08-20T02:13:49;7.43;;;6.60;;
64903;SDS011;51401;48.882;12.598;2023-08-20T02:16:14;7.77;;;6.43;;
64903;SDS011;51401;48.882;12.598;2023-08-20T02:18:41;8.73;;;7.05;;
64903;SDS011;51401;48.882;12.598;2023-08-20T02:21:06;7.20;;;6.50;;
64903;SDS011;51401;48.882;12.598;2023-08-20T02:23:32;7.97;;;7.13;;
64903;SDS011;51401;48.882;12.598;2023-08-20T02:25:57;8.95;;;7.63;;
64903;SDS011;51401;48.882;12.598;2023-08-20T02:28:23;7.57;;;6.88;;
64903;SDS011;51401;48.882;12.598;2023-08-20T02:30:48;9.20;;;8.07;;
64903;SDS011;51401;48.882;12.598;2023-08-20T02:33:14;7.53;;;6.53;;
64903;SDS011;51401;48.882;12.598;2023-08-20T02:35:39;7.15;;;6.28;;
64903;SDS011;51401;48.882;12.598;2023-08-20T02:38:05;7.68;;;6.90;;
64903;SDS011;51401;48.882;12.598;2023-08-20T02:40:31;9.38;;;6.70;;
64903;SDS011;51401;48.882;12.598;2023-08-20T02:42:56;8.50;;;7.47;;
64903;SDS011;51401;48.882;12.598;2023-08-20T02:45:22;8.10;;;6.90;;
64903;SDS011;51401;48.882;12.598;2023-08-20T02:47:47;8.43;;;7.55;;
64903;SDS011;51401;48.882;12.598;2023-08-20T02:50:13;9.45;;;7.80;;
64903;SDS011;51401;48.882;12.598;2023-08-20T02:52:38;8.40;;;7.28;;
64903;SDS011;51401;48.882;12.598;2023-08-20T02:55:04;8.65;;;7.35;;
64903;SDS011;51401;48.882;12.598;2023-08-20T02:57:32;8.57;;;7.78;;
64903;SDS011;51401;48.882;12.598;2023-08-20T02:59:57;7.93;;;7.13;;
64903;SDS011;51401;48.882;12.598;2023-08-20T03:02:22;7.75;;;6.90;;
64903;SDS011;51401;48.882;12.598;2023-08-20T03:04:48;12.25;;;7.63;;
64903;SDS011;51401;48.882;12.598;2023-08-20T03:07:13;8.20;;;7.30;;
64903;SDS011;51401;48.882;12.598;2023-08-20T03:09:38;11.00;;;8.03;;
64903;SDS011;51401;48.882;12.598;2023-08-20T03:12:04;9.33;;;6.87;;
64903;SDS011;51401;48.882;12.598;2023-08-20T03:14:29;7.93;;;7.10;;
64903;SDS011;51401;48.882;12.598;2023-08-20T03:16:54;9.20;;;7.30;;
64903;SDS011;51401;48.882;12.598;2023-08-20T03:19:20;8.10;;;7.30;;
64903;SDS011;51401;48.882;12.598;2023-08-20T03:21:45;8.10;;;6.93;;
64903;SDS011;51401;48.882;12.598;2023-08-20T03:24:10;8.37;;;7.47;;
64903;SDS011;51401;48.882;12.598;2023-08-20T03:26:35;7.53;;;6.72;;
64903;SDS011;51401;48.882;12.598;2023-08-20T03:29:01;8.35;;;7.53;;
64903;SDS011;51401;48.882;12.598;2023-08-20T03:31:28;7.78;;;6.97;;
64903;SDS011;51401;48.882;12.598;2023-08-20T03:33:53;8.30;;;7.50;;
64903;SDS011;51401;48.882;12.598;2023-08-20T03:36:18;8.20;;;7.37;;
64903;SDS011;51401;48.882;12.598;2023-08-20T03:38:43;10.40;;;7.77;;
64903;SDS011;51401;48.882;12.598;2023-08-20T03:41:09;7.47;;;6.70;;
64903;SDS011;51401;48.882;12.598;2023-08-20T03:43:34;8.45;;;7.22;;
64903;SDS011;51401;48.882;12.598;2023-08-20T03:46:00;8.77;;;7.35;;
64903;SDS011;51401;48.882;12.598;2023-08-20T03:48:26;8.25;;;7.38;;
64903;SDS011;51401;48.882;12.598;2023-08-20T03:50:51;8.37;;;7.10;;
64903;SDS011;51401;48.882;12.598;2023-08-20T03:53:17;9.10;;;8.13;;
64903;SDS011;51401;48.882;12.598;2023-08-20T03:55:47;8.38;;;7.47;;
64903;SDS011;51401;48.882;12.598;2023-08-20T03:58:13;8.50;;;7.30;;
64903;SDS011;51401;48.882;12.598;2023-08-20T04:00:38;9.73;;;7.30;;
64903;SDS011;51401;48.882;12.598;2023-08-20T04:03:04;8.13;;;7.32;;
64903;SDS011;51401;48.882;12.598;2023-08-20T04:05:29;8.27;;;7.18;;
64903;SDS011;51401;48.882;12.598;2023-08-20T04:07:54;8.87;;;7.77;;
64903;SDS011;51401;48.882;12.598;2023-08-20T04:10:20;7.90;;;7.10;;
64903;SDS011;51401;48.882;12.598;2023-08-20T04:12:45;9.50;;;7.53;;
64903;SDS011;51401;48.882;12.598;2023-08-20T04:15:10;11.40;;;8.33;;
64903;SDS011;51401;48.882;12.598;2023-08-20T04:17:35;10.25;;;7.90;;
64903;SDS011;51401;48.882;12.598;2023-08-20T04:20:01;8.57;;;7.20;;
64903;SDS011;51401;48.882;12.598;2023-08-20T04:22:26;9.70;;;7.53;;
64903;SDS011;51401;48.882;12.598;2023-08-20T04:24:53;8.65;;;7.78;;
64903;SDS011;51401;48.882;12.598;2023-08-20T04:27:19;9.73;;;7.33;;
64903;SDS011;51401;48.882;12.598;2023-08-20T04:29:44;8.53;;;7.73;;
64903;SDS011;51401;48.882;12.598;2023-08-20T04:32:09;8.13;;;7.33;;
64903;SDS011;51401;48.882;12.598;2023-08-20T04:34:34;8.47;;;7.60;;
64903;SDS011;51401;48.882;12.598;2023-08-20T04:36:59;8.80;;;7.90;;
64903;SDS011;51401;48.882;12.598;2023-08-20T04:39:25;8.90;;;8.00;;
64903;SDS011;51401;48.882;12.598;2023-08-20T04:41:50;8.27;;;7.30;;
64903;SDS011;51401;48.882;12.598;2023-08-20T04:44:15;8.60;;;7.70;;
64903;SDS011;51401;48.882;12.598;2023-08-20T04:46:41;10.02;;;7.90;;
64903;SDS011;51401;48.882;12.598;2023-08-20T04:49:07;8.93;;;7.68;;
64903;SDS011;51401;48.882;12.598;2023-08-20T04:51:32;8.20;;;7.33;;
64903;SDS011;51401;48.882;12.598;2023-08-20T04:53:58;8.90;;;7.53;;
64903;SDS011;51401;48.882;12.598;2023-08-20T04:56:23;8.23;;;7.13;;
64903;SDS011;51401;48.882;12.598;2023-08-20T04:58:48;9.03;;;7.57;;
64903;SDS011;51401;48.882;12.598;2023-08-20T05:01:14;8.47;;;7.63;;
64903;SDS011;51401;48.882;12.598;2023-08-20T05:03:39;9.05;;;7.55;;
64903;SDS011;51401;48.882;12.598;2023-08-20T05:06:04;8.17;;;7.37;;
64903;SDS011;51401;48.882;12.598;2023-08-20T05:08:29;8.85;;;7.90;;
64903;SDS011;51401;48.882;12.598;2023-08-20T05:10:55;8.20;;;7.38;;
64903;SDS011;51401;48.882;12.598;2023-08-20T05:13:20;9.17;;;7.40;;
64903;SDS011;51401;48.882;12.598;2023-08-20T05:15:46;8.30;;;7.43;;
64903;SDS011;51401;48.882;12.598;2023-08-20T05:18:11;7.88;;;7.07;;
64903;SDS011;51401;48.882;12.598;2023-08-20T05:20:37;9.25;;;7.97;;
64903;SDS011;51401;48.882;12.598;2023-08-20T05:23:02;8.73;;;7.83;;
64903;SDS011;51401;48.882;12.598;2023-08-20T05:25:29;9.23;;;8.25;;
64903;SDS011;51401;48.882;12.598;2023-08-20T05:27:54;10.77;;;8.33;;
64903;SDS011;51401;48.882;12.598;2023-08-20T05:30:19;8.57;;;7.67;;
64903;SDS011;51401;48.882;12.598;2023-08-20T05:32:44;8.93;;;7.78;;
64903;SDS011;51401;48.882;12.598;2023-08-20T05:35:10;9.70;;;8.50;;
64903;SDS011;51401;48.882;12.598;2023-08-20T05:37:35;8.43;;;7.63;;
64903;SDS011;51401;48.882;12.598;2023-08-20T05:40:00;8.82;;;7.93;;
64903;SDS011;51401;48.882;12.598;2023-08-20T05:42:26;9.07;;;8.10;;
64903;SDS011;51401;48.882;12.598;2023-08-20T05:44:51;8.93;;;8.03;;
64903;SDS011;51401;48.882;12.598;2023-08-20T05:47:16;9.13;;;8.10;;
64903;SDS011;51401;48.882;12.598;2023-08-20T05:49:41;8.90;;;8.00;;
64903;SDS011;51401;48.882;12.598;2023-08-20T05:52:07;8.77;;;7.93;;
64903;SDS011;51401;48.882;12.598;2023-08-20T05:54:32;10.65;;;8.38;;
64903;SDS011;51401;48.882;12.598;2023-08-20T05:56:57;8.83;;;8.03;;
64903;SDS011;51401;48.882;12.598;2023-08-20T05:59:23;9.70;;;8.70;;
64903;SDS011;51401;48.882;12.598;2023-08-20T06:01:49;8.70;;;7.87;;
64903;SDS011;51401;48.882;12.598;2023-08-20T06:04:14;8.57;;;7.70;;
64903;SDS011;51401;48.882;12.598;2023-08-20T06:06:39;9.65;;;8.73;;
64903;SDS011;51401;48.882;12.598;2023-08-20T06:09:05;9.10;;;8.15;;
64903;SDS011;51401;48.882;12.598;2023-08-20T06:11:30;9.45;;;8.45;;
64903;SDS011;51401;48.882;12.598;2023-08-20T06:13:56;8.88;;;8.00;;
64903;SDS011;51401;48.882;12.598;2023-08-20T06:16:21;10.63;;;9.07;;
64903;SDS011;51401;48.882;12.598;2023-08-20T06:18:46;10.38;;;8.07;;
64903;SDS011;51401;48.882;12.598;2023-08-20T06:21:12;9.20;;;8.32;;
64903;SDS011;51401;48.882;12.598;2023-08-20T06:23:38;8.73;;;7.88;;
64903;SDS011;51401;48.882;12.598;2023-08-20T06:26:03;8.90;;;8.00;;
64903;SDS011;51401;48.882;12.598;2023-08-20T06:28:28;8.77;;;7.97;;
64903;SDS011;51401;48.882;12.598;2023-08-20T06:30:54;9.90;;;8.93;;
64903;SDS011;51401;48.882;12.598;2023-08-20T06:33:19;9.40;;;8.53;;
64903;SDS011;51401;48.882;12.598;2023-08-20T06:35:44;9.53;;;8.67;;
64903;SDS011;51401;48.882;12.598;2023-08-20T06:38:09;9.47;;;8.43;;
64903;SDS011;51401;48.882;12.598;2023-08-20T06:40:34;9.73;;;8.60;;
64903;SDS011;51401;48.882;12.598;2023-08-20T06:43:00;9.63;;;8.70;;
64903;SDS011;51401;48.882;12.598;2023-08-20T06:45:25;9.82;;;8.00;;
64903;SDS011;51401;48.882;12.598;2023-08-20T06:47:50;9.17;;;8.27;;
64903;SDS011;51401;48.882;12.598;2023-08-20T06:50:16;9.20;;;8.37;;
64903;SDS011;51401;48.882;12.598;2023-08-20T06:52:42;9.43;;;8.43;;
64903;SDS011;51401;48.882;12.598;2023-08-20T06:55:07;9.90;;;8.90;;
64903;SDS011;51401;48.882;12.598;2023-08-20T06:57:33;9.23;;;8.40;;
64903;SDS011;51401;48.882;12.598;2023-08-20T06:59:58;8.97;;;8.17;;
64903;SDS011;51401;48.882;12.598;2023-08-20T07:02:23;9.48;;;8.32;;
64903;SDS011;51401;48.882;12.598;2023-08-20T07:04:49;9.13;;;8.23;;
64903;SDS011;51401;48.882;12.598;2023-08-20T07:07:14;7.80;;;7.17;;
64903;SDS011;51401;48.882;12.598;2023-08-20T07:09:40;9.13;;;8.30;;
64903;SDS011;51401;48.882;12.598;2023-08-20T07:12:06;8.82;;;8.05;;
64903;SDS011;51401;48.882;12.598;2023-08-20T07:14:32;9.45;;;8.43;;
64903;SDS011;51401;48.882;12.598;2023-08-20T07:16:57;8.73;;;7.93;;
64903;SDS011;51401;48.882;12.598;2023-08-20T07:19:22;8.73;;;7.93;;
64903;SDS011;51401;48.882;12.598;2023-08-20T07:21:47;8.67;;;7.87;;
64903;SDS011;51401;48.882;12.598;2023-08-20T07:24:13;9.57;;;8.77;;
64903;SDS011;51401;48.882;12.598;2023-08-20T07:26:38;8.60;;;7.80;;
64903;SDS011;51401;48.882;12.598;2023-08-20T07:29:04;8.65;;;7.85;;
64903;SDS011;51401;48.882;12.598;2023-08-20T07:31:30;10.38;;;8.30;;
64903;SDS011;51401;48.882;12.598;2023-08-20T07:33:58;8.75;;;8.00;;
64903;SDS011;51401;48.882;12.598;2023-08-20T07:36:26;9.38;;;8.57;;
64903;SDS011;51401;48.882;12.598;2023-08-20T07:38:52;8.35;;;7.65;;
64903;SDS011;51401;48.882;12.598;2023-08-20T07:41:18;9.90;;;8.90;;
64903;SDS011;51401;48.882;12.598;2023-08-20T07:43:44;9.43;;;8.25;;
64903;SDS011;51401;48.882;12.598;2023-08-20T07:46:11;10.07;;;9.05;;
64903;SDS011;51401;48.882;12.598;2023-08-20T07:48:37;8.68;;;7.97;;
64903;SDS011;51401;48.882;12.598;2023-08-20T07:51:02;8.60;;;7.70;;
64903;SDS011;51401;48.882;12.598;2023-08-20T07:53:28;9.10;;;8.27;;
64903;SDS011;51401;48.882;12.598;2023-08-20T07:55:54;9.35;;;8.45;;
64903;SDS011;51401;48.882;12.598;2023-08-20T07:58:20;10.40;;;8.90;;
64903;SDS011;51401;48.882;12.598;2023-08-20T08:00:45;8.50;;;7.70;;
64903;SDS011;51401;48.882;12.598;2023-08-20T08:03:10;9.10;;;8.23;;
64903;SDS011;51401;48.882;12.598;2023-08-20T08:05:36;8.87;;;8.07;;
64903;SDS011;51401;48.882;12.598;2023-08-20T08:08:01;9.02;;;8.23;;
64903;SDS011;51401;48.882;12.598;2023-08-20T08:10:27;9.35;;;8.40;;
64903;SDS011;51401;48.882;12.598;2023-08-20T08:12:53;9.77;;;8.30;;
64903;SDS011;51401;48.882;12.598;2023-08-20T08:15:18;8.20;;;7.40;;
64903;SDS011;51401;48.882;12.598;2023-08-20T08:17:43;8.70;;;7.83;;
64903;SDS011;51401;48.882;12.598;2023-08-20T08:20:09;9.40;;;8.50;;
64903;SDS011;51401;48.882;12.598;2023-08-20T08:22:34;8.87;;;8.07;;
64903;SDS011;51401;48.882;12.598;2023-08-20T08:24:59;8.50;;;7.70;;
64903;SDS011;51401;48.882;12.598;2023-08-20T08:27:24;8.73;;;7.93;;
64903;SDS011;51401;48.882;12.598;2023-08-20T08:29:50;8.60;;;7.80;;
64903;SDS011;51401;48.882;12.598;2023-08-20T08:32:15;9.13;;;7.80;;
64903;SDS011;51401;48.882;12.598;2023-08-20T08:34:41;8.07;;;7.30;;
64903;SDS011;51401;48.882;12.598;2023-08-20T08:37:06;8.23;;;7.47;;
64903;SDS011;51401;48.882;12.598;2023-08-20T08:39:32;7.73;;;7.03;;
64903;SDS011;51401;48.882;12.598;2023-08-20T08:42:00;8.48;;;7.38;;
64903;SDS011;51401;48.882;12.598;2023-08-20T08:44:33;8.52;;;7.60;;
64903;SDS011;51401;48.882;12.598;2023-08-20T08:46:59;8.53;;;7.73;;
64903;SDS011;51401;48.882;12.598;2023-08-20T08:49:30;7.80;;;7.07;;
64903;SDS011;51401;48.882;12.598;2023-08-20T08:51:58;8.63;;;7.38;;
64903;SDS011;51401;48.882;12.598;2023-08-20T08:54:24;7.30;;;6.60;;
64903;SDS011;51401;48.882;12.598;2023-08-20T08:56:49;7.35;;;6.63;;
64903;SDS011;51401;48.882;12.598;2023-08-20T08:59:15;7.65;;;6.93;;
64903;SDS011;51401;48.882;12.598;2023-08-20T09:01:40;6.67;;;6.07;;
64903;SDS011;51401;48.882;12.598;2023-08-20T09:04:06;7.30;;;6.60;;
64903;SDS011;51401;48.882;12.598;2023-08-20T09:06:51;7.07;;;6.47;;
64903;SDS011;51401;48.882;12.598;2023-08-20T09:09:18;7.65;;;6.95;;
64903;SDS011;51401;48.882;12.598;2023-08-20T09:11:44;8.15;;;6.93;;
64903;SDS011;51401;48.882;12.598;2023-08-20T09:14:22;6.70;;;6.10;;
64903;SDS011;51401;48.882;12.598;2023-08-20T09:17:00;7.10;;;6.50;;
64903;SDS011;51401;48.882;12.598;2023-08-20T09:19:30;7.10;;;6.50;;
64903;SDS011;51401;48.882;12.598;2023-08-20T09:22:00;7.55;;;6.57;;
64903;SDS011;51401;48.882;12.598;2023-08-20T09:24:38;6.53;;;5.93;;
64903;SDS011;51401;48.882;12.598;2023-08-20T09:27:17;7.40;;;6.70;;
64903;SDS011;51401;48.882;12.598;2023-08-20T09:29:47;7.82;;;7.13;;
64903;SDS011;51401;48.882;12.598;2023-08-20T09:32:22;7.30;;;6.60;;
64903;SDS011;51401;48.882;12.598;2023-08-20T09:34:50;7.07;;;6.45;;
64903;SDS011;51401;48.882;12.598;2023-08-20T09:37:17;7.75;;;6.95;;
64903;SDS011;51401;48.882;12.598;2023-08-20T09:39:44;8.00;;;7.30;;
64903;SDS011;51401;48.882;12.598;2023-08-20T09:42:10;8.25;;;7.45;;
64903;SDS011;51401;48.882;12.598;2023-08-20T09:44:37;8.27;;;7.57;;
64903;SDS011;51401;48.882;12.598;2023-08-20T09:47:07;7.90;;;7.20;;
64903;SDS011;51401;48.882;12.598;2023-08-20T09:49:41;9.10;;;7.72;;
64903;SDS011;51401;48.882;12.598;2023-08-20T09:52:09;8.10;;;7.40;;
64903;SDS011;51401;48.882;12.598;2023-08-20T09:54:45;8.63;;;7.30;;
64903;SDS011;51401;48.882;12.598;2023-08-20T09:57:36;8.40;;;7.60;;
64903;SDS011;51401;48.882;12.598;2023-08-20T10:00:03;8.00;;;7.28;;
64903;SDS011;51401;48.882;12.598;2023-08-20T10:02:37;7.95;;;7.15;;
64903;SDS011;51401;48.882;12.598;2023-08-20T10:05:04;8.00;;;7.30;;
64903;SDS011;51401;48.882;12.598;2023-08-20T10:07:30;7.40;;;6.80;;
64903;SDS011;51401;48.882;12.598;2023-08-20T10:09:57;7.50;;;6.80;;
64903;SDS011;51401;48.882;12.598;2023-08-20T10:12:26;7.65;;;6.88;;
64903;SDS011;51401;48.882;12.598;2023-08-20T10:14:53;8.73;;;7.45;;
64903;SDS011;51401;48.882;12.598;2023-08-20T10:17:19;7.20;;;6.63;;
64903;SDS011;51401;48.882;12.598;2023-08-20T10:19:44;7.47;;;6.77;;
64903;SDS011;51401;48.882;12.598;2023-08-20T10:22:11;7.55;;;6.95;;
64903;SDS011;51401;48.882;12.598;2023-08-20T10:24:41;6.82;;;6.25;;
64903;SDS011;51401;48.882;12.598;2023-08-20T10:27:11;7.30;;;6.70;;
64903;SDS011;51401;48.882;12.598;2023-08-20T10:29:37;7.55;;;6.85;;
64903;SDS011;51401;48.882;12.598;2023-08-20T10:32:12;7.40;;;6.80;;
64903;SDS011;51401;48.882;12.598;2023-08-20T10:34:38;7.07;;;6.47;;
64903;SDS011;51401;48.882;12.598;2023-08-20T10:37:10;7.10;;;6.47;;
64903;SDS011;51401;48.882;12.598;2023-08-20T10:39:40;7.38;;;6.70;;
64903;SDS011;51401;48.882;12.598;2023-08-20T10:47:37;7.45;;;6.55;;
64903;SDS011;51401;48.882;12.598;2023-08-20T10:50:08;7.53;;;6.82;;
64903;SDS011;51401;48.882;12.598;2023-08-20T10:52:39;7.38;;;6.32;;
64903;SDS011;51401;48.882;12.598;2023-08-20T10:55:06;6.80;;;6.25;;
64903;SDS011;51401;48.882;12.598;2023-08-20T10:57:36;7.25;;;6.55;;
64903;SDS011;51401;48.882;12.598;2023-08-20T11:00:04;6.30;;;5.70;;
64903;SDS011;51401;48.882;12.598;2023-08-20T11:02:34;7.13;;;6.53;;
64903;SDS011;51401;48.882;12.598;2023-08-20T11:05:01;7.57;;;6.88;;
64903;SDS011;51401;48.882;12.598;2023-08-20T11:07:27;7.20;;;6.70;;
64903;SDS011;51401;48.882;12.598;2023-08-20T11:09:53;6.65;;;6.13;;
64903;SDS011;51401;48.882;12.598;2023-08-20T11:12:20;7.53;;;6.78;;
64903;SDS011;51401;48.882;12.598;2023-08-20T11:14:46;7.05;;;6.45;;
64903;SDS011;51401;48.882;12.598;2023-08-20T11:17:11;7.32;;;6.68;;
64903;SDS011;51401;48.882;12.598;2023-08-20T11:19:36;7.37;;;6.73;;
64903;SDS011;51401;48.882;12.598;2023-08-20T11:22:02;7.55;;;6.78;;
64903;SDS011;51401;48.882;12.598;2023-08-20T11:24:28;6.13;;;5.68;;
64903;SDS011;51401;48.882;12.598;2023-08-20T11:26:54;6.97;;;6.38;;
64903;SDS011;51401;48.882;12.598;2023-08-20T11:29:20;6.80;;;6.03;;
64903;SDS011;51401;48.882;12.598;2023-08-20T11:31:46;7.00;;;6.38;;
64903;SDS011;51401;48.882;12.598;2023-08-20T11:34:11;7.03;;;6.43;;
64903;SDS011;51401;48.882;12.598;2023-08-20T11:36:38;7.05;;;6.35;;
64903;SDS011;51401;48.882;12.598;2023-08-20T11:39:04;7.03;;;6.32;;
64903;SDS011;51401;48.882;12.598;2023-08-20T11:41:29;7.60;;;6.00;;
64903;SDS011;51401;48.882;12.598;2023-08-20T11:43:55;6.93;;;6.32;;
64903;SDS011;51401;48.882;12.598;2023-08-20T11:46:21;6.23;;;5.60;;
64903;SDS011;51401;48.882;12.598;2023-08-20T11:51:36;6.40;;;5.90;;
64903;SDS011;51401;48.882;12.598;2023-08-20T11:54:17;9.32;;;5.65;;
64903;SDS011;51401;48.882;12.598;2023-08-20T11:56:52;6.47;;;5.53;;
64903;SDS011;51401;48.882;12.598;2023-08-20T11:59:30;6.25;;;5.68;;
64903;SDS011;51401;48.882;12.598;2023-08-20T12:01:56;6.18;;;5.68;;
64903;SDS011;51401;48.882;12.598;2023-08-20T12:04:24;6.60;;;5.88;;
64903;SDS011;51401;48.882;12.598;2023-08-20T12:07:09;6.15;;;5.60;;
64903;SDS011;51401;48.882;12.598;2023-08-20T12:09:38;6.75;;;6.15;;
64903;SDS011;51401;48.882;12.598;2023-08-20T12:12:05;6.80;;;6.13;;
64903;SDS011;51401;48.882;12.598;2023-08-20T12:14:31;6.72;;;5.43;;
64903;SDS011;51401;48.882;12.598;2023-08-20T12:16:56;5.70;;;5.17;;
64903;SDS011;51401;48.882;12.598;2023-08-20T12:19:21;5.78;;;5.28;;
64903;SDS011;51401;48.882;12.598;2023-08-20T12:21:48;6.82;;;5.32;;
64903;SDS011;51401;48.882;12.598;2023-08-20T12:24:14;6.53;;;5.93;;
64903;SDS011;51401;48.882;12.598;2023-08-20T12:26:40;5.88;;;5.32;;
64903;SDS011;51401;48.882;12.598;2023-08-20T12:29:05;5.68;;;5.18;;
64903;SDS011;51401;48.882;12.598;2023-08-20T12:31:31;6.30;;;5.70;;
64903;SDS011;51401;48.882;12.598;2023-08-20T12:33:57;5.50;;;5.00;;
64903;SDS011;51401;48.882;12.598;2023-08-20T12:36:23;5.28;;;4.78;;
64903;SDS011;51401;48.882;12.598;2023-08-20T12:38:48;6.33;;;5.83;;
64903;SDS011;51401;48.882;12.598;2023-08-20T12:41:13;5.87;;;5.37;;
64903;SDS011;51401;48.882;12.598;2023-08-20T12:43:39;5.53;;;5.13;;
64903;SDS011;51401;48.882;12.598;2023-08-20T12:46:05;6.10;;;5.50;;
64903;SDS011;51401;48.882;12.598;2023-08-20T12:48:30;5.60;;;5.00;;
64903;SDS011;51401;48.882;12.598;2023-08-20T12:50:55;6.00;;;5.50;;
64903;SDS011;51401;48.882;12.598;2023-08-20T12:53:21;6.45;;;5.68;;
64903;SDS011;51401;48.882;12.598;2023-08-20T12:55:46;5.70;;;5.20;;
64903;SDS011;51401;48.882;12.598;2023-08-20T12:58:12;5.70;;;5.20;;
64903;SDS011;51401;48.882;12.598;2023-08-20T13:00:38;6.47;;;5.10;;
64903;SDS011;51401;48.882;12.598;2023-08-20T13:03:04;5.65;;;5.15;;
64903;SDS011;51401;48.882;12.598;2023-08-20T13:05:29;5.60;;;5.10;;
64903;SDS011;51401;48.882;12.598;2023-08-20T13:07:55;5.68;;;5.18;;
64903;SDS011;51401;48.882;12.598;2023-08-20T13:10:21;5.35;;;4.82;;
64903;SDS011;51401;48.882;12.598;2023-08-20T13:12:53;5.25;;;4.85;;
64903;SDS011;51401;48.882;12.598;2023-08-20T13:15:19;6.03;;;4.93;;
64903;SDS011;51401;48.882;12.598;2023-08-20T13:17:46;5.75;;;5.22;;
64903;SDS011;51401;48.882;12.598;2023-08-20T13:20:13;5.82;;;5.13;;
64903;SDS011;51401;48.882;12.598;2023-08-20T13:22:39;5.18;;;4.68;;
64903;SDS011;51401;48.882;12.598;2023-08-20T13:25:05;5.68;;;5.18;;
64903;SDS011;51401;48.882;12.598;2023-08-20T13:27:31;6.78;;;5.30;;
64903;SDS011;51401;48.882;12.598;2023-08-20T13:29:56;6.00;;;5.03;;
64903;SDS011;51401;48.882;12.598;2023-08-20T13:32:22;5.68;;;4.93;;
64903;SDS011;51401;48.882;12.598;2023-08-20T13:34:51;5.03;;;4.60;;
64903;SDS011;51401;48.882;12.598;2023-08-20T13:37:18;5.68;;;5.18;;
64903;SDS011;51401;48.882;12.598;2023-08-20T13:39:43;5.33;;;4.80;;
64903;SDS011;51401;48.882;12.598;2023-08-20T13:42:08;5.60;;;4.93;;
64903;SDS011;51401;48.882;12.598;2023-08-20T13:44:34;5.20;;;4.80;;
64903;SDS011;51401;48.882;12.598;2023-08-20T13:46:59;5.10;;;4.63;;
64903;SDS011;51401;48.882;12.598;2023-08-20T13:49:25;4.88;;;4.47;;
64903;SDS011;51401;48.882;12.598;2023-08-20T13:51:50;5.40;;;4.35;;
64903;SDS011;51401;48.882;12.598;2023-08-20T13:54:16;5.22;;;4.03;;
64903;SDS011;51401;48.882;12.598;2023-08-20T13:56:41;5.22;;;4.68;;
64903;SDS011;51401;48.882;12.598;2023-08-20T13:59:08;4.88;;;4.47;;
64903;SDS011;51401;48.882;12.598;2023-08-20T14:01:37;5.97;;;4.80;;
64903;SDS011;51401;48.882;12.598;2023-08-20T14:04:02;4.63;;;4.22;;
64903;SDS011;51401;48.882;12.598;2023-08-20T14:06:29;5.07;;;4.43;;
64903;SDS011;51401;48.882;12.598;2023-08-20T14:08:54;4.55;;;4.15;;
64903;SDS011;51401;48.882;12.598;2023-08-20T14:11:19;4.50;;;4.10;;
64903;SDS011;51401;48.882;12.598;2023-08-20T14:13:45;5.43;;;4.93;;
64903;SDS011;51401;48.882;12.598;2023-08-20T14:16:10;5.00;;;4.50;;
64903;SDS011;51401;48.882;12.598;2023-08-20T14:18:35;5.20;;;4.70;;
64903;SDS011;51401;48.882;12.598;2023-08-20T14:21:01;5.33;;;4.83;;
64903;SDS011;51401;48.882;12.598;2023-08-20T14:23:26;4.97;;;4.47;;
64903;SDS011;51401;48.882;12.598;2023-08-20T14:25:51;4.53;;;4.13;;
64903;SDS011;51401;48.882;12.598;2023-08-20T14:28:19;5.05;;;4.55;;
64903;SDS011;51401;48.882;12.598;2023-08-20T14:30:44;6.35;;;4.70;;
64903;SDS011;51401;48.882;12.598;2023-08-20T14:33:10;4.70;;;4.20;;
64903;SDS011;51401;48.882;12.598;2023-08-20T14:35:35;5.10;;;4.70;;
64903;SDS011;51401;48.882;12.598;2023-08-20T14:38:00;5.60;;;4.35;;
64903;SDS011;51401;48.882;12.598;2023-08-20T14:40:26;5.20;;;4.67;;
64903;SDS011;51401;48.882;12.598;2023-08-20T14:42:51;5.28;;;4.78;;
64903;SDS011;51401;48.882;12.598;2023-08-20T14:45:16;5.37;;;4.77;;
64903;SDS011;51401;48.882;12.598;2023-08-20T14:47:42;4.50;;;4.03;;
64903;SDS011;51401;48.882;12.598;2023-08-20T14:50:07;5.28;;;4.78;;